createdAt,value
2018-07-08T00:02:29.306Z,47.90
2018-07-08T00:04:59.476Z,47.80
2018-07-08T00:07:28.596Z,47.90
2018-07-08T00:09:58.236Z,47.80
2018-07-08T00:12:27.328Z,47.90
2018-07-08T00:14:57.260Z,48.00
2018-07-08T00:17:27.786Z,48.00
2018-07-08T00:19:57.002Z,48.10
2018-07-08T00:22:26.073Z,48.30
2018-07-08T00:24:55.572Z,48.30
2018-07-08T00:27:24.659Z,48.30
2018-07-08T00:29:53.928Z,48.60
2018-07-08T00:32:23.047Z,48.70
2018-07-08T00:34:52.094Z,49.00
2018-07-08T00:37:21.358Z,49.00
2018-07-08T00:39:50.602Z,49.10
2018-07-08T00:42:21.773Z,49.30
2018-07-08T00:47:21.142Z,49.70
2018-07-08T00:49:50.582Z,49.70
2018-07-08T00:52:19.657Z,49.90
2018-07-08T00:54:48.696Z,50.00
2018-07-08T00:57:20.412Z,50.10
2018-07-08T00:59:49.763Z,50.20
2018-07-08T01:02:19.008Z,50.30
2018-07-08T01:04:48.094Z,50.40
2018-07-08T01:07:17.784Z,50.50
2018-07-08T01:09:46.804Z,50.60
2018-07-08T01:12:16.709Z,50.60
2018-07-08T01:14:45.848Z,50.70
2018-07-08T01:17:14.855Z,50.80
2018-07-08T01:19:45.272Z,50.90
2018-07-08T01:22:16.081Z,51.10
2018-07-08T01:24:45.402Z,51.10
2018-07-08T01:27:16.628Z,51.20
2018-07-08T01:29:45.695Z,51.40
2018-07-08T01:32:14.821Z,51.40
2018-07-08T01:34:44.699Z,51.50
2018-07-08T01:37:14.272Z,51.60
2018-07-08T01:39:45.417Z,51.60
2018-07-08T01:42:16.276Z,51.70
2018-07-08T01:44:45.959Z,51.90
2018-07-08T01:47:18.539Z,52.00
2018-07-08T01:52:19.008Z,52.20
2018-07-08T01:54:48.208Z,52.20
2018-07-08T01:57:17.287Z,52.30
2018-07-08T01:59:46.536Z,52.40
2018-07-08T02:02:15.584Z,52.60
2018-07-08T02:04:44.696Z,52.70
2018-07-08T02:07:15.688Z,52.90
2018-07-08T02:09:45.057Z,52.90
2018-07-08T02:12:14.725Z,53.00
2018-07-08T02:14:44.908Z,53.20
2018-07-08T02:17:14.373Z,53.50
2018-07-08T02:19:43.491Z,53.40
2018-07-08T02:22:12.565Z,53.60
2018-07-08T02:24:41.736Z,53.60
2018-07-08T02:27:11.041Z,53.70
2018-07-08T02:29:40.307Z,53.90
2018-07-08T02:32:10.544Z,54.00
2018-07-08T02:34:39.889Z,53.90
2018-07-08T02:37:09.089Z,54.10
2018-07-08T02:39:38.465Z,54.10
2018-07-08T02:42:10.105Z,54.10
2018-07-08T02:44:39.197Z,54.20
2018-07-08T02:47:08.273Z,54.30
2018-07-08T02:49:37.330Z,54.50
2018-07-08T02:52:06.388Z,54.60
2018-07-08T02:54:35.685Z,54.90
2018-07-08T02:57:04.842Z,55.10
2018-07-08T03:02:35.072Z,55.30
2018-07-08T03:05:04.257Z,55.10
2018-07-08T03:07:34.271Z,55.20
2018-07-08T03:10:04.185Z,55.40
2018-07-08T03:12:34.621Z,55.70
2018-07-08T03:15:07.194Z,55.80
2018-07-08T03:17:36.236Z,56.00
2018-07-08T03:20:05.328Z,56.30
2018-07-08T03:22:34.971Z,56.70
2018-07-08T03:25:04.800Z,57.10
2018-07-08T03:27:34.299Z,57.10
2018-07-08T03:30:04.667Z,57.40
2018-07-08T03:32:34.389Z,58.30
2018-07-08T03:35:04.304Z,57.60
2018-07-08T03:37:34.300Z,57.30
2018-07-08T03:40:04.491Z,57.20
2018-07-08T03:42:35.272Z,57.40
2018-07-08T03:45:04.384Z,57.60
2018-07-08T03:47:35.068Z,57.70
2018-07-08T03:50:05.085Z,58.10
2018-07-08T03:52:34.463Z,58.30
2018-07-08T03:55:05.459Z,58.80
2018-07-08T03:57:36.868Z,58.90
2018-07-08T04:00:06.075Z,59.10
2018-07-08T04:02:37.805Z,60.00
2018-07-08T04:05:06.944Z,59.50
2018-07-08T04:07:37.905Z,59.50
2018-07-08T04:10:06.939Z,59.50
2018-07-08T04:12:35.984Z,59.40
2018-07-08T04:15:05.364Z,59.00
2018-07-08T04:17:34.531Z,58.80
2018-07-08T04:20:04.497Z,58.40
2018-07-08T04:22:36.800Z,58.00
2018-07-08T04:27:35.508Z,56.90
2018-07-08T04:30:06.306Z,56.40
2018-07-08T04:32:35.400Z,56.20
2018-07-08T04:35:04.684Z,56.60
2018-07-08T04:37:35.468Z,55.80
2018-07-08T04:40:04.840Z,56.20
2018-07-08T04:42:34.592Z,55.50
2018-07-08T04:45:05.008Z,55.40
2018-07-08T04:47:34.615Z,55.30
2018-07-08T04:50:04.643Z,55.10
2018-07-08T04:52:34.764Z,54.80
2018-07-08T04:55:04.656Z,54.60
2018-07-08T04:57:34.995Z,54.40
2018-07-08T05:00:05.227Z,54.50
2018-07-08T05:02:34.702Z,53.90
2018-07-08T05:05:04.860Z,54.10
2018-07-08T05:07:34.677Z,52.40
2018-07-08T05:10:05.069Z,52.80
2018-07-08T05:12:35.174Z,52.80
2018-07-08T05:15:04.756Z,52.70
2018-07-08T05:17:34.673Z,52.90
2018-07-08T05:20:04.831Z,52.70
2018-07-08T05:22:34.761Z,52.40
2018-07-08T05:25:05.213Z,52.20
2018-07-08T05:27:34.655Z,52.30
2018-07-08T05:30:05.589Z,52.30
2018-07-08T05:32:36.505Z,52.30
2018-07-08T05:35:06.061Z,52.20
2018-07-08T05:37:35.166Z,52.50
2018-07-08T05:40:04.999Z,52.50
2018-07-08T05:42:35.185Z,52.30
2018-07-08T05:45:04.958Z,52.10
2018-07-08T05:47:34.951Z,52.10
2018-07-08T05:50:06.474Z,52.10
2018-07-08T05:52:35.636Z,52.40
2018-07-08T05:55:04.846Z,52.20
2018-07-08T05:57:35.006Z,52.20
2018-07-08T06:01:02.820Z,52.00
2018-07-08T06:03:31.920Z,51.90
2018-07-08T06:06:01.006Z,52.20
2018-07-08T06:08:31.444Z,51.60
2018-07-08T06:11:02.644Z,51.40
2018-07-08T06:13:33.563Z,52.10
2018-07-08T06:18:31.516Z,51.20
2018-07-08T06:21:01.044Z,51.30
2018-07-08T06:23:30.238Z,50.60
2018-07-08T06:25:59.950Z,50.20
2018-07-08T06:28:29.438Z,50.30
2018-07-08T06:30:58.582Z,50.30
2018-07-08T06:33:28.132Z,50.30
2018-07-08T06:35:57.325Z,50.20
2018-07-08T06:38:26.459Z,49.90
2018-07-08T06:40:56.118Z,50.20
2018-07-08T06:43:26.123Z,49.80
2018-07-08T06:45:59.003Z,49.40
2018-07-08T06:51:02.290Z,49.30
2018-07-08T06:53:33.365Z,48.30
2018-07-08T06:56:04.648Z,48.00
2018-07-08T06:58:35.423Z,47.80
2018-07-08T07:01:06.570Z,47.40
2018-07-08T07:03:37.698Z,47.00
2018-07-08T07:06:08.308Z,46.50
2018-07-08T07:08:38.166Z,46.10
2018-07-08T07:11:08.749Z,45.60
2018-07-08T07:13:40.254Z,44.90
2018-07-08T07:16:10.602Z,45.30
2018-07-08T07:18:41.112Z,44.80
2018-07-08T07:24:13.766Z,43.30
2018-07-08T07:27:04.837Z,42.50
2018-07-08T07:29:48.380Z,42.30
2018-07-08T07:35:26.293Z,42.00
2018-07-08T07:38:17.746Z,41.50
2018-07-08T07:40:51.048Z,41.80
2018-07-08T07:43:37.175Z,42.00
2018-07-08T07:46:20.005Z,42.10
2018-07-08T07:48:53.069Z,42.50
2018-07-08T07:51:39.819Z,41.70
2018-07-08T07:54:29.331Z,41.90
2018-07-08T07:57:26.179Z,39.80
2018-07-08T08:00:12.092Z,39.70
2018-07-08T08:02:45.965Z,40.10
2018-07-08T08:05:20.881Z,41.00
2018-07-08T08:08:11.332Z,40.70
2018-07-08T08:10:59.644Z,39.70
2018-07-08T08:13:36.644Z,40.00
2018-07-08T08:16:09.936Z,39.30
2018-07-08T08:18:41.495Z,39.50
2018-07-08T08:21:13.245Z,38.60
2018-07-08T08:23:47.808Z,38.50
2018-07-08T08:26:17.923Z,38.50
2018-07-08T08:28:48.739Z,38.30
2018-07-08T08:31:19.544Z,38.10
2018-07-08T08:35:11.166Z,38.10
2018-07-08T08:37:43.075Z,38.70
2018-07-08T08:40:16.770Z,39.40
2018-07-08T08:42:49.455Z,39.40
2018-07-08T08:45:22.173Z,39.30
2018-07-08T08:47:51.248Z,39.30
2018-07-08T08:50:21.701Z,39.70
2018-07-08T08:52:50.950Z,40.20
2018-07-08T08:55:20.400Z,40.20
2018-07-08T08:57:50.150Z,40.10
2018-07-08T09:00:19.990Z,40.90
2018-07-08T09:02:49.166Z,39.80
2018-07-08T09:05:18.861Z,38.90
2018-07-08T09:07:50.267Z,39.10
2018-07-08T09:10:21.777Z,39.10
2018-07-08T09:12:52.378Z,39.30
2018-07-08T09:15:23.454Z,39.00
2018-07-08T09:17:55.770Z,38.70
2018-07-08T09:20:27.283Z,39.50
2018-07-08T09:22:56.774Z,39.10
2018-07-08T09:25:26.556Z,38.20
2018-07-08T09:27:57.679Z,37.40
2018-07-08T09:33:07.035Z,36.60
2018-07-08T09:35:37.464Z,36.00
2018-07-08T09:38:11.869Z,36.30
2018-07-08T09:40:48.046Z,36.70
2018-07-08T09:43:19.412Z,36.60
2018-07-08T09:45:49.373Z,37.90
2018-07-08T09:48:18.788Z,38.00
2018-07-08T09:50:48.105Z,37.30
2018-07-08T09:53:19.051Z,38.00
2018-07-08T09:55:49.804Z,37.60
2018-07-08T09:58:21.264Z,37.40
2018-07-08T10:00:51.936Z,37.00
2018-07-08T10:03:21.683Z,36.90
2018-07-08T10:05:52.467Z,37.70
2018-07-08T10:08:22.010Z,36.80
2018-07-08T10:10:53.311Z,36.30
2018-07-08T10:13:23.095Z,36.30
2018-07-08T10:15:54.590Z,36.80
2018-07-08T10:18:24.207Z,37.00
2018-07-08T10:20:54.119Z,37.70
2018-07-08T10:23:24.527Z,37.10
2018-07-08T10:25:54.823Z,37.00
2018-07-08T10:28:25.096Z,37.50
2018-07-08T10:30:55.276Z,38.10
2018-07-08T10:33:25.989Z,37.70
2018-07-08T10:36:04.689Z,37.70
2018-07-08T10:38:38.038Z,37.60
2018-07-08T10:41:07.929Z,37.40
2018-07-08T10:43:37.205Z,37.80
2018-07-08T10:46:06.497Z,37.70
2018-07-08T10:48:36.647Z,38.00
2018-07-08T10:51:06.556Z,38.10
2018-07-08T10:53:36.528Z,37.40
2018-07-08T10:56:06.163Z,37.00
2018-07-08T10:58:36.818Z,36.80
2018-07-08T11:01:06.907Z,37.10
2018-07-08T11:03:36.294Z,37.60
2018-07-08T11:06:06.571Z,36.70
2018-07-08T11:08:36.428Z,37.20
2018-07-08T11:11:06.501Z,36.50
2018-07-08T11:13:36.320Z,36.40
2018-07-08T11:16:05.544Z,36.00
2018-07-08T11:18:35.394Z,36.70
2018-07-08T11:21:05.365Z,36.30
2018-07-08T11:23:35.034Z,36.10
2018-07-08T11:26:05.693Z,35.90
2018-07-08T11:28:35.756Z,35.70
2018-07-08T11:31:04.911Z,36.50
2018-07-08T11:33:35.047Z,36.90
2018-07-08T11:36:06.608Z,36.90
2018-07-08T11:38:37.731Z,37.80
2018-07-08T11:41:09.650Z,36.70
2018-07-08T11:43:38.689Z,36.90
2018-07-08T11:46:09.631Z,37.10
2018-07-08T11:48:38.777Z,37.40
2018-07-08T11:51:09.968Z,37.60
2018-07-08T11:53:40.251Z,37.80
2018-07-08T11:56:12.191Z,37.60
2018-07-08T12:01:13.670Z,37.50
2018-07-08T12:03:44.170Z,37.10
2018-07-08T12:06:14.443Z,37.30
2018-07-08T12:08:46.966Z,37.50
2018-07-08T12:11:18.005Z,36.60
2018-07-08T12:13:49.123Z,35.60
2018-07-08T12:16:24.918Z,35.80
2018-07-08T12:18:56.679Z,36.20
2018-07-08T12:21:28.305Z,36.40
2018-07-08T12:23:58.308Z,37.00
2018-07-08T12:26:29.036Z,37.10
2018-07-08T12:28:58.447Z,37.80
2018-07-08T12:31:29.213Z,38.00
2018-07-08T12:34:03.511Z,38.90
2018-07-08T12:36:32.973Z,38.30
2018-07-08T12:39:03.424Z,38.50
2018-07-08T12:41:34.762Z,37.60
2018-07-08T12:44:04.019Z,37.20
2018-07-08T12:46:34.121Z,37.20
2018-07-08T12:49:03.962Z,37.80
2018-07-08T12:51:33.379Z,38.20
2018-07-08T12:54:02.721Z,37.00
2018-07-08T12:56:33.702Z,37.70
2018-07-08T12:59:03.448Z,37.60
2018-07-08T13:01:33.642Z,37.70
2018-07-08T13:04:03.260Z,37.20
2018-07-08T13:06:36.296Z,36.90
2018-07-08T13:09:06.406Z,37.20
2018-07-08T13:11:36.933Z,36.90
2018-07-08T13:14:06.474Z,37.10
2018-07-08T13:16:36.434Z,36.40
2018-07-08T13:19:07.014Z,35.80
2018-07-08T13:21:40.841Z,35.40
2018-07-08T13:24:14.768Z,35.10
2018-07-08T13:26:44.762Z,34.70
2018-07-08T13:29:14.017Z,34.60
2018-07-08T13:31:44.833Z,34.90
2018-07-08T13:34:14.186Z,35.30
2018-07-08T13:36:43.369Z,35.60
2018-07-08T13:39:13.190Z,35.30
2018-07-08T13:41:43.534Z,35.00
2018-07-08T13:44:14.871Z,35.40
2018-07-08T13:46:46.336Z,35.20
2018-07-08T13:49:16.449Z,35.20
2018-07-08T13:51:47.290Z,35.10
2018-07-08T13:54:16.544Z,35.20
2018-07-08T13:56:47.976Z,34.90
2018-07-08T13:59:18.158Z,34.90
2018-07-08T14:01:51.308Z,35.00
2018-07-08T14:04:22.024Z,35.00
2018-07-08T14:06:53.837Z,34.90
2018-07-08T14:09:22.932Z,34.80
2018-07-08T14:11:52.528Z,36.10
2018-07-08T14:14:22.051Z,36.00
2018-07-08T14:16:53.715Z,36.30
2018-07-08T14:24:22.822Z,36.00
2018-07-08T14:26:52.599Z,35.60
2018-07-08T14:29:22.011Z,35.80
2018-07-08T14:31:54.399Z,35.30
2018-07-08T14:34:23.952Z,35.20
2018-07-08T14:36:53.759Z,35.60
2018-07-08T14:39:23.983Z,35.70
2018-07-08T14:41:54.120Z,35.70
2018-07-08T14:44:23.689Z,35.20
2018-07-08T14:46:54.369Z,35.20
2018-07-08T14:51:54.146Z,35.10
2018-07-08T14:54:23.795Z,35.90
2018-07-08T14:56:53.488Z,35.50
2018-07-08T14:59:23.365Z,35.90
2018-07-08T15:01:58.691Z,35.50
2018-07-08T15:04:28.974Z,35.20
2018-07-08T15:06:59.215Z,35.50
2018-07-08T15:09:29.147Z,35.30
2018-07-08T15:11:59.847Z,35.60
2018-07-08T15:14:30.278Z,35.10
2018-07-08T15:17:00.362Z,35.30
2018-07-08T15:19:30.847Z,35.00
2018-07-08T15:22:00.571Z,35.20
2018-07-08T15:24:30.988Z,34.80
2018-07-08T15:27:01.278Z,35.00
2018-07-08T15:29:33.404Z,35.10
2018-07-08T15:32:03.838Z,35.10
2018-07-08T15:34:35.093Z,35.00
2018-07-08T15:37:04.724Z,34.50
2018-07-08T15:42:04.878Z,35.10
2018-07-08T15:44:35.015Z,35.10
2018-07-08T15:47:04.769Z,35.80
2018-07-08T15:49:34.916Z,35.60
2018-07-08T15:52:05.019Z,35.70
2018-07-08T15:54:34.190Z,35.40
2018-07-08T15:57:03.820Z,35.50
2018-07-08T15:59:33.634Z,35.80
2018-07-08T16:02:03.188Z,36.60
2018-07-08T16:04:32.792Z,35.80
2018-07-08T16:07:02.871Z,36.00
2018-07-08T16:09:32.846Z,36.10
2018-07-08T16:12:03.766Z,36.20
2018-07-08T16:14:33.134Z,36.40
2018-07-08T16:41:02.542Z,36.10
2018-07-08T16:44:37.498Z,37.10
2018-07-08T16:47:07.606Z,37.70
2018-07-08T16:49:38.180Z,38.00
2018-07-08T16:52:08.799Z,37.90
2018-07-08T16:54:38.695Z,37.60
2018-07-08T16:57:08.670Z,37.30
2018-07-08T16:59:38.408Z,37.30
2018-07-08T17:02:08.275Z,37.30
2018-07-08T17:07:07.776Z,37.50
2018-07-08T17:09:37.502Z,37.50
2018-07-08T17:12:08.350Z,37.60
2018-07-08T17:14:38.473Z,37.00
2018-07-08T17:17:08.325Z,37.20
2018-07-08T17:19:38.120Z,37.30
2018-07-08T17:22:08.019Z,37.20
2018-07-08T17:24:37.478Z,37.30
2018-07-08T17:32:06.802Z,37.40
2018-07-08T17:34:41.216Z,37.40
2018-07-08T17:37:11.338Z,37.50
2018-07-08T17:39:41.159Z,37.50
2018-07-08T17:42:10.448Z,37.40
2018-07-08T17:44:41.015Z,37.50
2018-07-08T17:47:10.840Z,37.90
2018-07-08T17:49:40.081Z,37.70
2018-07-08T17:52:11.707Z,37.90
2018-07-08T17:54:41.479Z,38.10
2018-07-08T17:59:42.073Z,38.00
2018-07-08T18:02:15.256Z,38.10
2018-07-08T18:04:44.637Z,38.80
2018-07-08T18:07:14.224Z,39.00
2018-07-08T18:09:43.928Z,38.90
2018-07-08T18:12:19.893Z,38.90
2018-07-08T18:14:49.571Z,39.20
2018-07-08T18:17:20.610Z,39.10
2018-07-08T18:19:50.803Z,39.60
2018-07-08T18:22:20.833Z,38.70
2018-07-08T18:24:54.230Z,38.80
2018-07-08T18:27:23.544Z,38.90
2018-07-08T18:29:53.940Z,39.00
2018-07-08T18:32:23.437Z,38.90
2018-07-08T18:34:54.576Z,38.80
2018-07-08T18:37:24.366Z,39.90
2018-07-08T18:39:55.959Z,39.40
2018-07-08T18:42:26.691Z,39.50
2018-07-08T18:44:56.421Z,39.30
2018-07-08T18:47:27.436Z,39.40
2018-07-08T18:49:58.146Z,39.50
2018-07-08T18:52:27.568Z,39.90
2018-07-08T18:54:58.813Z,39.90
2018-07-08T18:57:29.000Z,40.00
2018-07-08T18:59:58.881Z,40.00
2018-07-08T19:02:31.387Z,40.10
2018-07-08T19:05:01.478Z,40.30
2018-07-08T19:07:32.428Z,40.40
2018-07-08T19:10:03.456Z,40.40
2018-07-08T19:12:33.569Z,40.30
2018-07-08T19:15:03.101Z,40.50
2018-07-08T19:17:32.748Z,40.60
2018-07-08T19:20:01.905Z,40.80
2018-07-08T19:22:32.331Z,41.40
2018-07-08T19:25:02.628Z,40.60
2018-07-08T19:27:32.129Z,40.80
2018-07-08T19:30:02.595Z,40.90
2018-07-08T19:32:34.831Z,40.90
2018-07-08T19:35:04.733Z,41.20
2018-07-08T19:37:35.295Z,41.30
2018-07-08T19:40:07.522Z,41.50
2018-07-08T19:42:37.539Z,41.60
2018-07-08T19:45:08.627Z,41.70
2018-07-08T19:47:40.278Z,41.80
2018-07-08T19:50:09.988Z,42.00
2018-07-08T19:52:40.908Z,42.00
2018-07-08T19:55:11.267Z,42.10
2018-07-08T19:57:40.729Z,42.10
2018-07-08T20:00:10.298Z,42.10
2018-07-08T20:02:40.915Z,42.00
2018-07-08T20:05:16.712Z,41.80
2018-07-08T20:07:47.271Z,41.90
2018-07-08T20:10:18.010Z,41.70
2018-07-08T20:12:47.384Z,41.70
2018-07-08T20:15:17.417Z,41.60
2018-07-08T20:17:48.181Z,41.50
2018-07-08T20:20:18.277Z,41.60
2018-07-08T20:22:47.402Z,41.40
2018-07-08T20:25:16.969Z,41.40
2018-07-08T20:27:46.720Z,41.40
2018-07-08T20:30:16.039Z,41.40
2018-07-08T20:32:45.786Z,41.30
2018-07-08T20:35:15.452Z,41.20
2018-07-08T20:37:44.860Z,41.10
2018-07-08T20:40:14.358Z,41.10
2018-07-08T20:42:44.084Z,41.00
2018-07-08T20:45:14.200Z,41.10
2018-07-08T20:47:43.530Z,40.80
2018-07-08T20:50:12.792Z,40.90
2018-07-08T20:52:41.955Z,41.00
2018-07-08T20:55:11.115Z,41.00
2018-07-08T20:57:40.169Z,41.30
2018-07-08T21:00:09.325Z,41.30
2018-07-08T21:02:38.651Z,41.40
2018-07-08T21:05:08.070Z,41.50
2018-07-08T21:07:38.582Z,41.70
2018-07-08T21:10:08.987Z,41.70
2018-07-08T21:12:38.224Z,42.00
2018-07-08T21:15:10.325Z,42.10
2018-07-08T21:17:39.509Z,42.40
2018-07-08T21:20:08.903Z,42.60
2018-07-08T21:22:38.232Z,42.60
2018-07-08T21:25:09.819Z,42.80
2018-07-08T21:27:39.049Z,43.00
2018-07-08T21:30:08.165Z,43.20
2018-07-08T21:32:37.435Z,43.40
2018-07-08T21:35:08.902Z,43.40
2018-07-08T21:37:38.001Z,43.50
2018-07-08T21:40:07.461Z,43.50
2018-07-08T21:42:36.513Z,43.80
2018-07-08T21:45:05.647Z,44.00
2018-07-08T21:47:34.871Z,44.10
2018-07-08T21:50:04.104Z,44.40
2018-07-08T21:52:33.554Z,44.60
2018-07-08T21:55:02.789Z,45.30
2018-07-08T21:57:32.843Z,44.90
2018-07-08T22:00:02.033Z,45.00
2018-07-08T22:02:33.724Z,45.10
2018-07-08T22:05:03.466Z,45.20
2018-07-08T22:07:38.260Z,45.40
2018-07-08T22:10:07.581Z,45.50
2018-07-08T22:12:36.984Z,45.60
2018-07-08T22:15:06.269Z,45.80
2018-07-08T22:17:37.247Z,46.00
2018-07-08T22:20:06.568Z,46.00
2018-07-08T22:22:37.427Z,46.00
2018-07-08T22:25:06.619Z,46.20
2018-07-08T22:27:35.676Z,46.30
2018-07-08T22:30:04.896Z,46.60
2018-07-08T22:32:34.093Z,46.40
2018-07-08T22:35:04.117Z,46.40
2018-07-08T22:37:33.892Z,46.50
2018-07-08T22:40:05.372Z,46.60
2018-07-08T22:42:34.480Z,46.60
2018-07-08T22:45:04.944Z,46.70
2018-07-08T22:47:34.655Z,47.00
2018-07-08T22:50:07.901Z,47.00
2018-07-08T22:52:36.985Z,47.50
2018-07-08T22:55:06.215Z,47.10
2018-07-08T22:57:35.321Z,47.20
2018-07-08T23:00:26.360Z,47.40
2018-07-08T23:04:01.041Z,47.40
2018-07-08T23:06:32.534Z,47.50
2018-07-08T23:09:01.919Z,47.60
2018-07-08T23:11:31.024Z,47.90
2018-07-08T23:14:00.655Z,48.00
2018-07-08T23:16:30.044Z,48.10
2018-07-08T23:18:59.231Z,48.20
2018-07-08T23:21:30.929Z,48.40
2018-07-08T23:24:00.013Z,48.90
2018-07-08T23:28:59.137Z,48.60
2018-07-08T23:31:28.294Z,48.70
2018-07-08T23:33:58.821Z,48.80
2018-07-08T23:36:27.932Z,48.90
2018-07-08T23:38:57.134Z,48.90
2018-07-08T23:41:26.188Z,49.10
2018-07-08T23:43:55.756Z,49.10
2018-07-08T23:46:24.969Z,49.30
2018-07-08T23:48:54.009Z,49.50
2018-07-08T23:51:23.308Z,49.60
2018-07-08T23:53:52.708Z,49.60
2018-07-08T23:56:21.841Z,49.80
2018-07-08T23:58:51.825Z,49.70
